sensor_id;sensor_type;location;lat;lon;timestamp;pressure;altitude;pressure_sealevel;temperature;humidity
26775;BME280;14362;51.902;7.626;2023-01-29T00:02:59;102372.28;;;-0.32;100.00
26775;BME280;14362;51.902;7.626;2023-01-29T00:07:00;102365.53;;;-0.30;100.00
26775;BME280;14362;51.902;7.626;2023-01-29T00:11:02;102353.13;;;-0.32;100.00
26775;BME280;14362;51.902;7.626;2023-01-29T00:15:05;102360.47;;;-0.33;100.00
26775;BME280;14362;51.902;7.626;2023-01-29T00:19:08;102351.63;;;-0.35;100.00
26775;BME280;14362;51.902;7.626;2023-01-29T00:23:09;102336.91;;;-0.40;100.00
26775;BME280;14362;51.902;7.626;2023-01-29T00:27:11;102341.56;;;-0.41;100.00
26775;BME280;14362;51.902;7.626;2023-01-29T00:31:14;102341.56;;;-0.41;100.00
26775;BME280;14362;51.902;7.626;2023-01-29T00:35:17;102352.69;;;-0.42;100.00
26775;BME280;14362;51.902;7.626;2023-01-29T00:39:18;102345.53;;;-0.37;100.00
26775;BME280;14362;51.902;7.626;2023-01-29T00:43:24;102339.63;;;-0.40;100.00
26775;BME280;14362;51.902;7.626;2023-01-29T00:47:43;102344.47;;;-0.36;100.00
26775;BME280;14362;51.902;7.626;2023-01-29T00:51:46;102353.31;;;-0.34;100.00
26775;BME280;14362;51.902;7.626;2023-01-29T00:56:08;102352.25;;;-0.33;100.00
26775;BME280;14362;51.902;7.626;2023-01-29T01:00:12;102347.41;;;-0.31;100.00
26775;BME280;14362;51.902;7.626;2023-01-29T01:04:14;102340.25;;;-0.32;100.00
26775;BME280;14362;51.902;7.626;2023-01-29T01:08:17;102332.03;;;-0.32;100.00
26775;BME280;14362;51.902;7.626;2023-01-29T01:12:35;102321.31;;;-0.33;100.00
26775;BME280;14362;51.902;7.626;2023-01-29T01:16:37;102313.28;;;-0.35;100.00
26775;BME280;14362;51.902;7.626;2023-01-29T01:20:38;102304.88;;;-0.33;100.00
26775;BME280;14362;51.902;7.626;2023-01-29T01:24:42;102293.94;;;-0.40;100.00
26775;BME280;14362;51.902;7.626;2023-01-29T01:28:43;102297.72;;;-0.41;100.00
26775;BME280;14362;51.902;7.626;2023-01-29T01:32:44;102294.56;;;-0.44;100.00
26775;BME280;14362;51.902;7.626;2023-01-29T01:36:46;102288.88;;;-0.43;100.00
26775;BME280;14362;51.902;7.626;2023-01-29T01:40:49;102299.19;;;-0.45;100.00
26775;BME280;14362;51.902;7.626;2023-01-29T01:44:54;102308.25;;;-0.44;100.00
26775;BME280;14362;51.902;7.626;2023-01-29T01:48:58;102285.91;;;-0.41;100.00
26775;BME280;14362;51.902;7.626;2023-01-29T01:53:06;102297.50;;;-0.39;100.00
26775;BME280;14362;51.902;7.626;2023-01-29T01:57:14;102289.69;;;-0.36;100.00
26775;BME280;14362;51.902;7.626;2023-01-29T02:01:16;102286.13;;;-0.36;100.00
26775;BME280;14362;51.902;7.626;2023-01-29T02:05:20;102288.84;;;-0.36;100.00
26775;BME280;14362;51.902;7.626;2023-01-29T02:09:42;102300.88;;;-0.37;100.00
26775;BME280;14362;51.902;7.626;2023-01-29T02:13:47;102298.53;;;-0.34;100.00
26775;BME280;14362;51.902;7.626;2023-01-29T02:17:52;102311.41;;;-0.34;100.00
26775;BME280;14362;51.902;7.626;2023-01-29T02:22:23;102321.06;;;-0.32;100.00
26775;BME280;14362;51.902;7.626;2023-01-29T02:26:52;102334.78;;;-0.32;100.00
26775;BME280;14362;51.902;7.626;2023-01-29T02:31:05;102339.19;;;-0.31;100.00
26775;BME280;14362;51.902;7.626;2023-01-29T02:35:14;102332.00;;;-0.25;100.00
26775;BME280;14362;51.902;7.626;2023-01-29T02:39:31;102333.28;;;-0.28;100.00
26775;BME280;14362;51.902;7.626;2023-01-29T02:43:44;102338.13;;;-0.30;100.00
26775;BME280;14362;51.902;7.626;2023-01-29T02:47:54;102325.91;;;-0.34;100.00
26775;BME280;14362;51.902;7.626;2023-01-29T02:52:01;102314.97;;;-0.34;100.00
26775;BME280;14362;51.902;7.626;2023-01-29T02:56:09;102328.25;;;-0.37;100.00
26775;BME280;14362;51.902;7.626;2023-01-29T03:00:15;102320.44;;;-0.34;100.00
26775;BME280;14362;51.902;7.626;2023-01-29T03:04:23;102324.44;;;-0.30;100.00
26775;BME280;14362;51.902;7.626;2023-01-29T03:08:30;102329.91;;;-0.30;100.00
26775;BME280;14362;51.902;7.626;2023-01-29T03:12:43;102334.56;;;-0.30;100.00
26775;BME280;14362;51.902;7.626;2023-01-29T03:16:49;102329.50;;;-0.27;100.00
26775;BME280;14362;51.902;7.626;2023-01-29T03:20:54;102330.13;;;-0.25;100.00
26775;BME280;14362;51.902;7.626;2023-01-29T03:25:00;102323.19;;;-0.34;100.00
26775;BME280;14362;51.902;7.626;2023-01-29T03:29:20;102314.13;;;-0.28;100.00
26775;BME280;14362;51.902;7.626;2023-01-29T03:33:43;102310.53;;;-0.35;100.00
26775;BME280;14362;51.902;7.626;2023-01-29T03:37:48;102309.06;;;-0.31;100.00
26775;BME280;14362;51.902;7.626;2023-01-29T03:41:53;102301.91;;;-0.32;100.00
26775;BME280;14362;51.902;7.626;2023-01-29T03:46:03;102306.13;;;-0.36;100.00
26775;BME280;14362;51.902;7.626;2023-01-29T03:50:15;102296.22;;;-0.30;100.00
26775;BME280;14362;51.902;7.626;2023-01-29T03:54:25;102303.97;;;-0.27;100.00
26775;BME280;14362;51.902;7.626;2023-01-29T03:58:34;102282.53;;;-0.30;100.00
26775;BME280;14362;51.902;7.626;2023-01-29T04:02:41;102274.47;;;-0.25;100.00
26775;BME280;14362;51.902;7.626;2023-01-29T04:06:48;102255.34;;;-0.38;100.00
26775;BME280;14362;51.902;7.626;2023-01-29T04:10:55;102245.03;;;-0.36;100.00
26775;BME280;14362;51.902;7.626;2023-01-29T04:15:00;102239.94;;;-0.33;100.00
26775;BME280;14362;51.902;7.626;2023-01-29T04:19:04;102234.03;;;-0.30;100.00
26775;BME280;14362;51.902;7.626;2023-01-29T04:23:16;102250.03;;;-0.27;100.00
26775;BME280;14362;51.902;7.626;2023-01-29T04:27:25;102237.41;;;-0.28;100.00
26775;BME280;14362;51.902;7.626;2023-01-29T04:31:33;102233.81;;;-0.22;100.00
26775;BME280;14362;51.902;7.626;2023-01-29T04:35:46;102233.19;;;-0.24;100.00
26775;BME280;14362;51.902;7.626;2023-01-29T04:39:53;102224.09;;;-0.24;100.00
26775;BME280;14362;51.902;7.626;2023-01-29T04:44:05;102226.63;;;-0.23;100.00
26775;BME280;14362;51.902;7.626;2023-01-29T04:48:15;102209.78;;;-0.20;100.00
26775;BME280;14362;51.902;7.626;2023-01-29T04:52:23;102211.25;;;-0.24;100.00
26775;BME280;14362;51.902;7.626;2023-01-29T04:56:33;102196.31;;;-0.28;100.00
26775;BME280;14362;51.902;7.626;2023-01-29T05:00:40;102188.09;;;-0.28;100.00
26775;BME280;14362;51.902;7.626;2023-01-29T05:04:43;102186.84;;;-0.32;100.00
26775;BME280;14362;51.902;7.626;2023-01-29T05:08:47;102190.59;;;-0.26;100.00
26775;BME280;14362;51.902;7.626;2023-01-29T05:12:54;102193.19;;;-0.31;100.00
26775;BME280;14362;51.902;7.626;2023-01-29T05:17:02;102187.47;;;-0.30;100.00
26775;BME280;14362;51.902;7.626;2023-01-29T05:21:07;102182.84;;;-0.29;100.00
26775;BME280;14362;51.902;7.626;2023-01-29T05:25:21;102200.94;;;-0.22;100.00
26775;BME280;14362;51.902;7.626;2023-01-29T05:29:23;102189.97;;;-0.22;100.00
26775;BME280;14362;51.902;7.626;2023-01-29T05:33:27;102206.56;;;-0.17;100.00
26775;BME280;14362;51.902;7.626;2023-01-29T05:37:29;102219.84;;;-0.14;100.00
26775;BME280;14362;51.902;7.626;2023-01-29T05:41:30;102218.78;;;-0.13;100.00
26775;BME280;14362;51.902;7.626;2023-01-29T05:45:32;102223.00;;;-0.10;100.00
26775;BME280;14362;51.902;7.626;2023-01-29T05:49:35;102225.50;;;-0.09;100.00
26775;BME280;14362;51.902;7.626;2023-01-29T05:53:37;102214.94;;;-0.05;100.00
26775;BME280;14362;51.902;7.626;2023-01-29T05:57:39;102217.47;;;-0.04;100.00
26775;BME280;14362;51.902;7.626;2023-01-29T06:01:41;102226.31;;;-0.02;100.00
26775;BME280;14362;51.902;7.626;2023-01-29T06:05:43;102233.50;;;-0.01;100.00
26775;BME280;14362;51.902;7.626;2023-01-29T06:09:45;102237.69;;;0.01;100.00
26775;BME280;14362;51.902;7.626;2023-01-29T06:13:46;102208.97;;;0.04;100.00
26775;BME280;14362;51.902;7.626;2023-01-29T06:17:48;102218.25;;;0.03;100.00
26775;BME280;14362;51.902;7.626;2023-01-29T06:21:50;102225.00;;;0.07;100.00
26775;BME280;14362;51.902;7.626;2023-01-29T06:25:52;102220.13;;;0.09;100.00
26775;BME280;14362;51.902;7.626;2023-01-29T06:29:53;102214.03;;;0.07;100.00
26775;BME280;14362;51.902;7.626;2023-01-29T06:33:55;102234.47;;;0.11;100.00
26775;BME280;14362;51.902;7.626;2023-01-29T06:37:57;102231.72;;;0.11;100.00
26775;BME280;14362;51.902;7.626;2023-01-29T06:41:59;102236.34;;;0.10;100.00
26775;BME280;14362;51.902;7.626;2023-01-29T06:46:00;102222.44;;;0.12;100.00
26775;BME280;14362;51.902;7.626;2023-01-29T06:50:02;102236.53;;;0.15;100.00
26775;BME280;14362;51.902;7.626;2023-01-29T06:54:05;102221.16;;;0.14;100.00
26775;BME280;14362;51.902;7.626;2023-01-29T06:58:09;102233.78;;;0.15;100.00
26775;BME280;14362;51.902;7.626;2023-01-29T07:02:11;102228.53;;;0.14;100.00
26775;BME280;14362;51.902;7.626;2023-01-29T07:06:12;102215.28;;;0.11;100.00
26775;BME280;14362;51.902;7.626;2023-01-29T07:10:16;102211.69;;;0.10;100.00
26775;BME280;14362;51.902;7.626;2023-01-29T07:14:17;102215.91;;;0.13;100.00
26775;BME280;14362;51.902;7.626;2023-01-29T07:18:18;102209.56;;;0.12;100.00
26775;BME280;14362;51.902;7.626;2023-01-29T07:22:20;102216.53;;;0.15;100.00
26775;BME280;14362;51.902;7.626;2023-01-29T07:26:23;102215.63;;;0.21;100.00
26775;BME280;14362;51.902;7.626;2023-01-29T07:30:24;102210.38;;;0.19;100.00
26775;BME280;14362;51.902;7.626;2023-01-29T07:34:25;102223.63;;;0.22;100.00
26775;BME280;14362;51.902;7.626;2023-01-29T07:38:27;102216.22;;;0.23;100.00
26775;BME280;14362;51.902;7.626;2023-01-29T07:42:30;102225.94;;;0.25;100.00
26775;BME280;14362;51.902;7.626;2023-01-29T07:46:31;102225.72;;;0.27;100.00
26775;BME280;14362;51.902;7.626;2023-01-29T07:50:34;102214.50;;;0.28;100.00
26775;BME280;14362;51.902;7.626;2023-01-29T07:54:35;102206.06;;;0.30;100.00
26775;BME280;14362;51.902;7.626;2023-01-29T07:58:38;102199.72;;;0.29;100.00
26775;BME280;14362;51.902;7.626;2023-01-29T08:02:40;102201.22;;;0.32;100.00
26775;BME280;14362;51.902;7.626;2023-01-29T08:06:41;102201.41;;;0.37;100.00
26775;BME280;14362;51.902;7.626;2023-01-29T08:10:43;102189.31;;;0.38;100.00
26775;BME280;14362;51.902;7.626;2023-01-29T08:14:46;102189.81;;;0.35;100.00
26775;BME280;14362;51.902;7.626;2023-01-29T08:18:47;102178.16;;;0.39;100.00
26775;BME280;14362;51.902;7.626;2023-01-29T08:22:49;102168.88;;;0.40;100.00
26775;BME280;14362;51.902;7.626;2023-01-29T08:26:50;102172.88;;;0.38;100.00
26775;BME280;14362;51.902;7.626;2023-01-29T08:30:53;102171.38;;;0.42;100.00
26775;BME280;14362;51.902;7.626;2023-01-29T08:34:54;102164.63;;;0.44;100.00
26775;BME280;14362;51.902;7.626;2023-01-29T08:38:56;102156.38;;;0.44;100.00
26775;BME280;14362;51.902;7.626;2023-01-29T08:42:58;102133.53;;;0.50;100.00
26775;BME280;14362;51.902;7.626;2023-01-29T08:47:03;102137.34;;;0.49;100.00
26775;BME280;14362;51.902;7.626;2023-01-29T08:51:05;102137.31;;;0.56;100.00
26775;BME280;14362;51.902;7.626;2023-01-29T08:55:07;102139.56;;;0.59;100.00
26775;BME280;14362;51.902;7.626;2023-01-29T08:59:09;102149.19;;;0.68;100.00
26775;BME280;14362;51.902;7.626;2023-01-29T09:03:12;102141.97;;;0.73;100.00
26775;BME280;14362;51.902;7.626;2023-01-29T09:07:13;102140.06;;;0.74;100.00
26775;BME280;14362;51.902;7.626;2023-01-29T09:11:15;102139.47;;;0.72;100.00
26775;BME280;14362;51.902;7.626;2023-01-29T09:15:16;102137.72;;;0.77;100.00
26775;BME280;14362;51.902;7.626;2023-01-29T09:19:19;102131.53;;;0.82;100.00
26775;BME280;14362;51.902;7.626;2023-01-29T09:23:20;102126.28;;;0.80;100.00
26775;BME280;14362;51.902;7.626;2023-01-29T09:27:22;102124.78;;;0.84;100.00
26775;BME280;14362;51.902;7.626;2023-01-29T09:31:23;102132.16;;;0.84;100.00
26775;BME280;14362;51.902;7.626;2023-01-29T09:35:26;102136.41;;;0.80;100.00
26775;BME280;14362;51.902;7.626;2023-01-29T09:39:28;102137.81;;;0.89;100.00
26775;BME280;14362;51.902;7.626;2023-01-29T09:43:39;102146.78;;;0.96;100.00
26775;BME280;14362;51.902;7.626;2023-01-29T09:47:43;102141.69;;;0.99;100.00
26775;BME280;14362;51.902;7.626;2023-01-29T09:51:48;102152.44;;;1.00;100.00
26775;BME280;14362;51.902;7.626;2023-01-29T09:55:55;102157.25;;;1.05;100.00
26775;BME280;14362;51.902;7.626;2023-01-29T09:59:59;102150.47;;;1.07;100.00
26775;BME280;14362;51.902;7.626;2023-01-29T10:04:11;102142.16;;;1.14;100.00
26775;BME280;14362;51.902;7.626;2023-01-29T10:12:54;102128.97;;;1.04;100.00
26775;BME280;14362;51.902;7.626;2023-01-29T10:17:07;102129.25;;;1.14;100.00
26775;BME280;14362;51.902;7.626;2023-01-29T10:21:27;102113.03;;;1.13;100.00
26775;BME280;14362;51.902;7.626;2023-01-29T10:25:40;102105.56;;;1.20;100.00
26775;BME280;14362;51.902;7.626;2023-01-29T10:29:43;102096.81;;;1.23;100.00
26775;BME280;14362;51.902;7.626;2023-01-29T10:33:49;102089.75;;;1.15;100.00
26775;BME280;14362;51.902;7.626;2023-01-29T10:37:52;102089.69;;;1.22;100.00
26775;BME280;14362;51.902;7.626;2023-01-29T10:42:12;102092.25;;;1.35;100.00
26775;BME280;14362;51.902;7.626;2023-01-29T10:46:23;102089.66;;;1.40;100.00
26775;BME280;14362;51.902;7.626;2023-01-29T10:50:38;102085.75;;;1.47;100.00
26775;BME280;14362;51.902;7.626;2023-01-29T10:54:52;102088.28;;;1.31;100.00
26775;BME280;14362;51.902;7.626;2023-01-29T10:59:02;102083.31;;;1.39;100.00
26775;BME280;14362;51.902;7.626;2023-01-29T11:03:15;102064.78;;;1.35;100.00
26775;BME280;14362;51.902;7.626;2023-01-29T11:07:18;102062.25;;;1.33;100.00
26775;BME280;14362;51.902;7.626;2023-01-29T11:11:26;102046.63;;;1.34;100.00
26775;BME280;14362;51.902;7.626;2023-01-29T11:15:33;102032.19;;;1.38;100.00
26775;BME280;14362;51.902;7.626;2023-01-29T11:19:37;102023.47;;;1.41;100.00
26775;BME280;14362;51.902;7.626;2023-01-29T11:23:38;102021.72;;;1.47;100.00
26775;BME280;14362;51.902;7.626;2023-01-29T11:27:43;102041.09;;;1.52;100.00
26775;BME280;14362;51.902;7.626;2023-01-29T11:31:47;102038.47;;;1.57;100.00
26775;BME280;14362;51.902;7.626;2023-01-29T11:35:48;102035.50;;;1.58;100.00
26775;BME280;14362;51.902;7.626;2023-01-29T11:39:51;102037.44;;;1.69;100.00
26775;BME280;14362;51.902;7.626;2023-01-29T11:43:53;102015.69;;;1.68;100.00
26775;BME280;14362;51.902;7.626;2023-01-29T11:48:00;102002.78;;;1.68;100.00
26775;BME280;14362;51.902;7.626;2023-01-29T11:52:03;102002.78;;;1.68;100.00
26775;BME280;14362;51.902;7.626;2023-01-29T11:56:16;101982.50;;;1.69;100.00
26775;BME280;14362;51.902;7.626;2023-01-29T12:00:21;101979.34;;;1.66;100.00
26775;BME280;14362;51.902;7.626;2023-01-29T12:04:25;101974.81;;;1.71;100.00
26775;BME280;14362;51.902;7.626;2023-01-29T12:08:30;101962.53;;;1.74;100.00
26775;BME280;14362;51.902;7.626;2023-01-29T12:12:46;101953.56;;;1.78;100.00
26775;BME280;14362;51.902;7.626;2023-01-29T12:16:51;101935.88;;;1.86;100.00
26775;BME280;14362;51.902;7.626;2023-01-29T12:20:59;101933.13;;;1.86;100.00
26775;BME280;14362;51.902;7.626;2023-01-29T12:25:07;101932.53;;;1.84;100.00
26775;BME280;14362;51.902;7.626;2023-01-29T12:29:25;101925.84;;;1.91;100.00
26775;BME280;14362;51.902;7.626;2023-01-29T12:33:35;101924.53;;;1.94;100.00
26775;BME280;14362;51.902;7.626;2023-01-29T12:37:47;101907.91;;;2.00;100.00
26775;BME280;14362;51.902;7.626;2023-01-29T12:41:55;101906.13;;;2.05;100.00
26775;BME280;14362;51.902;7.626;2023-01-29T12:45:59;101897.75;;;2.00;100.00
26775;BME280;14362;51.902;7.626;2023-01-29T12:50:05;101891.91;;;1.97;100.00
26775;BME280;14362;51.902;7.626;2023-01-29T12:54:12;101884.97;;;2.06;100.00
26775;BME280;14362;51.902;7.626;2023-01-29T12:58:20;101882.09;;;2.12;100.00
26775;BME280;14362;51.902;7.626;2023-01-29T13:02:30;101875.03;;;2.16;100.00
26775;BME280;14362;51.902;7.626;2023-01-29T13:06:35;101870.94;;;2.19;100.00
26775;BME280;14362;51.902;7.626;2023-01-29T13:10:46;101859.69;;;2.20;100.00
26775;BME280;14362;51.902;7.626;2023-01-29T13:14:53;101854.22;;;2.09;100.00
26775;BME280;14362;51.902;7.626;2023-01-29T13:18:57;101846.34;;;2.12;100.00
26775;BME280;14362;51.902;7.626;2023-01-29T13:23:16;101844.53;;;2.18;100.00
26775;BME280;14362;51.902;7.626;2023-01-29T13:27:23;101844.84;;;2.21;100.00
26775;BME280;14362;51.902;7.626;2023-01-29T13:31:27;101836.75;;;2.15;100.00
26775;BME280;14362;51.902;7.626;2023-01-29T13:35:30;101838.91;;;2.13;100.00
26775;BME280;14362;51.902;7.626;2023-01-29T13:39:34;101836.16;;;2.13;100.00
26775;BME280;14362;51.902;7.626;2023-01-29T13:43:40;101835.34;;;2.12;100.00
26775;BME280;14362;51.902;7.626;2023-01-29T13:47:42;101831.72;;;2.12;100.00
26775;BME280;14362;51.902;7.626;2023-01-29T13:51:45;101834.75;;;2.10;100.00
26775;BME280;14362;51.902;7.626;2023-01-29T13:55:46;101817.78;;;2.02;100.00
26775;BME280;14362;51.902;7.626;2023-01-29T13:59:51;101816.78;;;2.08;100.00
26775;BME280;14362;51.902;7.626;2023-01-29T14:03:55;101813.94;;;2.14;100.00
26775;BME280;14362;51.902;7.626;2023-01-29T14:07:57;101812.25;;;2.13;100.00
26775;BME280;14362;51.902;7.626;2023-01-29T14:11:59;101803.41;;;2.11;100.00
26775;BME280;14362;51.902;7.626;2023-01-29T14:16:32;101803.63;;;2.10;100.00
26775;BME280;14362;51.902;7.626;2023-01-29T14:20:37;101795.78;;;2.02;100.00
26775;BME280;14362;51.902;7.626;2023-01-29T14:24:41;101782.25;;;2.00;100.00
26775;BME280;14362;51.902;7.626;2023-01-29T14:28:51;101783.78;;;2.08;100.00
26775;BME280;14362;51.902;7.626;2023-01-29T14:32:55;101785.38;;;2.04;100.00
26775;BME280;14362;51.902;7.626;2023-01-29T14:37:00;101786.09;;;1.99;100.00
26775;BME280;14362;51.902;7.626;2023-01-29T14:41:06;101782.19;;;1.96;100.00
26775;BME280;14362;51.902;7.626;2023-01-29T14:45:22;101788.34;;;2.02;100.00
26775;BME280;14362;51.902;7.626;2023-01-29T14:53:51;101790.50;;;2.00;100.00
26775;BME280;14362;51.902;7.626;2023-01-29T14:57:55;101788.84;;;1.99;100.00
26775;BME280;14362;51.902;7.626;2023-01-29T15:02:00;101784.66;;;1.97;100.00
26775;BME280;14362;51.902;7.626;2023-01-29T15:06:06;101780.38;;;2.01;100.00
26775;BME280;14362;51.902;7.626;2023-01-29T15:10:15;101781.31;;;1.95;100.00
26775;BME280;14362;51.902;7.626;2023-01-29T15:14:23;101773.94;;;1.96;100.00
26775;BME280;14362;51.902;7.626;2023-01-29T15:18:30;101779.16;;;1.97;100.00
26775;BME280;14362;51.902;7.626;2023-01-29T15:22:41;101776.69;;;1.96;100.00
26775;BME280;14362;51.902;7.626;2023-01-29T15:26:44;101773.66;;;1.97;100.00
26775;BME280;14362;51.902;7.626;2023-01-29T15:30:50;101766.84;;;1.99;100.00
26775;BME280;14362;51.902;7.626;2023-01-29T15:34:54;101770.91;;;1.97;100.00
26775;BME280;14362;51.902;7.626;2023-01-29T15:39:13;101758.13;;;1.91;100.00
26775;BME280;14362;51.902;7.626;2023-01-29T15:43:21;101758.50;;;1.95;100.00
26775;BME280;14362;51.902;7.626;2023-01-29T15:47:25;101754.91;;;1.94;100.00
26775;BME280;14362;51.902;7.626;2023-01-29T15:51:28;101743.91;;;1.94;100.00
26775;BME280;14362;51.902;7.626;2023-01-29T15:55:30;101736.41;;;1.90;100.00
26775;BME280;14362;51.902;7.626;2023-01-29T15:59:37;101721.09;;;1.94;100.00
26775;BME280;14362;51.902;7.626;2023-01-29T16:03:44;101721.31;;;1.92;100.00
26775;BME280;14362;51.902;7.626;2023-01-29T16:07:48;101715.59;;;1.94;100.00
26775;BME280;14362;51.902;7.626;2023-01-29T16:11:52;101694.44;;;1.94;100.00
26775;BME280;14362;51.902;7.626;2023-01-29T16:15:57;101697.19;;;1.94;100.00
26775;BME280;14362;51.902;7.626;2023-01-29T16:20:00;101699.59;;;1.91;100.00
26775;BME280;14362;51.902;7.626;2023-01-29T16:24:05;101702.34;;;1.91;100.00
26775;BME280;14362;51.902;7.626;2023-01-29T16:28:08;101693.25;;;1.90;100.00
26775;BME280;14362;51.902;7.626;2023-01-29T16:32:12;101681.53;;;1.95;100.00
26775;BME280;14362;51.902;7.626;2023-01-29T16:36:16;101683.91;;;1.91;100.00
26775;BME280;14362;51.902;7.626;2023-01-29T16:40:25;101671.63;;;1.94;100.00
26775;BME280;14362;51.902;7.626;2023-01-29T16:44:31;101680.94;;;1.93;100.00
26775;BME280;14362;51.902;7.626;2023-01-29T16:48:34;101675.06;;;1.89;100.00
26775;BME280;14362;51.902;7.626;2023-01-29T16:52:36;101672.94;;;1.91;100.00
26775;BME280;14362;51.902;7.626;2023-01-29T16:56:37;101675.06;;;1.89;100.00
26775;BME280;14362;51.902;7.626;2023-01-29T17:00:43;101671.63;;;1.94;100.00
26775;BME280;14362;51.902;7.626;2023-01-29T17:04:47;101671.94;;;1.97;100.00
26775;BME280;14362;51.902;7.626;2023-01-29T17:08:49;101673.88;;;1.97;100.00
26775;BME280;14362;51.902;7.626;2023-01-29T17:12:55;101665.88;;;1.95;100.00
26775;BME280;14362;51.902;7.626;2023-01-29T17:17:02;101662.88;;;1.97;100.00
26775;BME280;14362;51.902;7.626;2023-01-29T17:21:05;101657.94;;;1.98;100.00
26775;BME280;14362;51.902;7.626;2023-01-29T17:25:07;101646.13;;;1.98;100.00
26775;BME280;14362;51.902;7.626;2023-01-29T17:29:12;101652.72;;;1.97;100.00
26775;BME280;14362;51.902;7.626;2023-01-29T17:33:17;101643.97;;;2.00;100.00
26775;BME280;14362;51.902;7.626;2023-01-29T17:37:22;101644.66;;;2.07;100.00
26775;BME280;14362;51.902;7.626;2023-01-29T17:41:25;101636.53;;;2.00;100.00
26775;BME280;14362;51.902;7.626;2023-01-29T17:45:27;101618.63;;;1.98;100.00
26775;BME280;14362;51.902;7.626;2023-01-29T17:49:29;101612.16;;;2.04;100.00
26775;BME280;14362;51.902;7.626;2023-01-29T17:53:33;101608.81;;;2.02;100.00
26775;BME280;14362;51.902;7.626;2023-01-29T17:57:34;101601.75;;;2.06;100.00
26775;BME280;14362;51.902;7.626;2023-01-29T18:01:35;101585.00;;;2.07;100.00
26775;BME280;14362;51.902;7.626;2023-01-29T18:05:37;101573.66;;;2.04;100.00
26775;BME280;14362;51.902;7.626;2023-01-29T18:09:42;101566.56;;;2.08;100.00
26775;BME280;14362;51.902;7.626;2023-01-29T18:13:44;101562.19;;;2.07;100.00
26775;BME280;14362;51.902;7.626;2023-01-29T18:17:45;101562.19;;;2.07;100.00
26775;BME280;14362;51.902;7.626;2023-01-29T18:21:48;101564.25;;;2.16;100.00
26775;BME280;14362;51.902;7.626;2023-01-29T18:25:51;101553.50;;;2.15;100.00
26775;BME280;14362;51.902;7.626;2023-01-29T18:29:56;101543.09;;;2.17;100.00
26775;BME280;14362;51.902;7.626;2023-01-29T18:33:58;101552.50;;;2.21;100.00
26775;BME280;14362;51.902;7.626;2023-01-29T18:37:59;101547.34;;;2.24;100.00
26775;BME280;14362;51.902;7.626;2023-01-29T18:42:02;101542.91;;;2.23;100.00
26775;BME280;14362;51.902;7.626;2023-01-29T18:46:04;101539.66;;;2.26;100.00
26775;BME280;14362;51.902;7.626;2023-01-29T18:50:07;101524.66;;;2.17;100.00
26775;BME280;14362;51.902;7.626;2023-01-29T18:54:10;101532.09;;;2.17;100.00
26775;BME280;14362;51.902;7.626;2023-01-29T18:58:13;101524.91;;;2.16;100.00
26775;BME280;14362;51.902;7.626;2023-01-29T19:02:16;101524.81;;;2.11;100.00
26775;BME280;14362;51.902;7.626;2023-01-29T19:06:18;101507.75;;;2.09;100.00
26775;BME280;14362;51.902;7.626;2023-01-29T19:10:19;101503.31;;;2.08;100.00
26775;BME280;14362;51.902;7.626;2023-01-29T19:14:23;101501.84;;;2.00;100.00
26775;BME280;14362;51.902;7.626;2023-01-29T19:18:25;101488.94;;;2.01;100.00
26775;BME280;14362;51.902;7.626;2023-01-29T19:22:26;101483.44;;;2.01;100.00
26775;BME280;14362;51.902;7.626;2023-01-29T19:26:28;101478.13;;;1.95;100.00
26775;BME280;14362;51.902;7.626;2023-01-29T19:30:34;101467.94;;;1.95;100.00
26775;BME280;14362;51.902;7.626;2023-01-29T19:34:35;101466.63;;;1.98;100.00
26775;BME280;14362;51.902;7.626;2023-01-29T19:38:37;101461.84;;;1.93;100.00
26775;BME280;14362;51.902;7.626;2023-01-29T19:42:39;101446.78;;;1.96;100.00
26775;BME280;14362;51.902;7.626;2023-01-29T19:46:41;101445.72;;;1.97;100.00
26775;BME280;14362;51.902;7.626;2023-01-29T19:50:49;101437.69;;;1.95;100.00
26775;BME280;14362;51.902;7.626;2023-01-29T19:54:51;101425.63;;;1.96;100.00
26775;BME280;14362;51.902;7.626;2023-01-29T19:58:52;101429.22;;;1.97;100.00
26775;BME280;14362;51.902;7.626;2023-01-29T20:02:57;101414.88;;;1.95;100.00
26775;BME280;14362;51.902;7.626;2023-01-29T20:06:59;101398.13;;;1.96;100.00
26775;BME280;14362;51.902;7.626;2023-01-29T20:11:01;101390.78;;;2.01;100.00
26775;BME280;14362;51.902;7.626;2023-01-29T20:15:03;101372.47;;;2.07;100.00
26775;BME280;14362;51.902;7.626;2023-01-29T20:19:07;101354.03;;;2.07;100.00
26775;BME280;14362;51.902;7.626;2023-01-29T20:23:09;101352.09;;;2.08;100.00
26775;BME280;14362;51.902;7.626;2023-01-29T20:27:10;101350.78;;;2.10;100.00
26775;BME280;14362;51.902;7.626;2023-01-29T20:31:13;101350.53;;;2.12;100.00
26775;BME280;14362;51.902;7.626;2023-01-29T20:35:16;101343.94;;;2.13;100.00
26775;BME280;14362;51.902;7.626;2023-01-29T20:39:17;101336.03;;;2.16;100.00
26775;BME280;14362;51.902;7.626;2023-01-29T20:43:19;101332.69;;;2.14;100.00
26775;BME280;14362;51.902;7.626;2023-01-29T20:47:20;101345.16;;;2.22;100.00
26775;BME280;14362;51.902;7.626;2023-01-29T20:51:23;101347.16;;;2.26;100.00
26775;BME280;14362;51.902;7.626;2023-01-29T20:55:25;101354.03;;;2.29;100.00
26775;BME280;14362;51.902;7.626;2023-01-29T20:59:26;101351.38;;;2.34;100.00
26775;BME280;14362;51.902;7.626;2023-01-29T21:03:28;101326.38;;;2.35;100.00
26775;BME280;14362;51.902;7.626;2023-01-29T21:07:31;101322.78;;;2.35;100.00
26775;BME280;14362;51.902;7.626;2023-01-29T21:11:32;101299.69;;;2.36;100.00
26775;BME280;14362;51.902;7.626;2023-01-29T21:15:34;101292.25;;;2.36;100.00
26775;BME280;14362;51.902;7.626;2023-01-29T21:19:35;101304.75;;;2.44;100.00
26775;BME280;14362;51.902;7.626;2023-01-29T21:23:38;101327.28;;;2.46;100.00
26775;BME280;14362;51.902;7.626;2023-01-29T21:27:39;101324.38;;;2.52;100.00